createdAt,value
2018-03-20T00:01:35.364Z,20.2
2018-03-20T00:16:35.387Z,21.9
2018-03-20T00:46:35.641Z,22.5
2018-03-20T01:06:35.441Z,23.4
2018-03-20T02:26:35.519Z,22
2018-03-20T02:41:35.369Z,22.1
2018-03-20T03:16:35.489Z,23.1
2018-03-20T03:31:35.625Z,22.6
2018-03-20T04:06:35.853Z,20.5
2018-03-20T04:21:35.662Z,20
2018-03-20T04:36:45.865Z,21.9
2018-03-20T04:56:40.737Z,23.3
2018-03-20T05:11:40.757Z,27.2
2018-03-20T05:26:40.756Z,25
2018-03-20T05:41:41.013Z,28.4
2018-03-20T06:01:41.122Z,24.3
2018-03-20T06:16:41.223Z,23.5
2018-03-20T06:46:41.455Z,22.8
2018-03-20T07:06:41.387Z,23.5
2018-03-20T07:21:41.592Z,23.8
2018-03-20T07:56:41.628Z,22.9
2018-03-20T08:26:41.625Z,24.1
2018-03-20T08:41:41.834Z,21.5
2018-03-20T09:16:41.879Z,18.3
2018-03-20T09:31:49.441Z,19.5
2018-03-20T09:51:44.568Z,18.8
2018-03-20T10:06:45.674Z,20.5
2018-03-20T10:21:44.338Z,19.2
2018-03-20T10:56:44.362Z,23.3
2018-03-20T11:11:44.494Z,18.8
2018-03-20T11:46:44.383Z,20.9
2018-03-20T12:01:44.420Z,17.6
2018-03-20T12:16:44.613Z,18.7
2018-03-20T12:31:44.675Z,21.3
2018-03-20T12:51:44.563Z,21.5
2018-03-20T13:06:44.725Z,22.3
2018-03-20T13:41:45.008Z,21.6
2018-03-20T14:11:45.006Z,25.4
2018-03-20T14:26:45.594Z,27.3
2018-03-20T14:46:45.613Z,23.3
2018-03-20T15:01:45.812Z,21.1
2018-03-20T15:16:45.925Z,18.1
2018-03-20T15:36:45.703Z,14.9
2018-03-20T15:51:45.843Z,14.9
2018-03-20T16:06:46.056Z,13.5
2018-03-20T16:21:45.742Z,14
2018-03-20T16:41:45.770Z,15.4
2018-03-20T16:56:45.759Z,16
2018-03-20T17:11:45.992Z,13.6
2018-03-20T17:31:45.907Z,13.6
2018-03-20T18:01:45.778Z,14.2
2018-03-20T19:26:50.830Z,11.1
2018-03-20T19:41:50.981Z,12.4
2018-03-20T19:56:50.904Z,11.6
2018-03-20T20:31:51.126Z,11
2018-03-20T20:46:51.173Z,11.8
2018-03-20T21:21:51.357Z,11.1
2018-03-20T21:36:51.405Z,12.6
2018-03-20T21:51:51.383Z,12.3
2018-03-20T22:26:57.582Z,10.4
2018-03-20T22:56:51.312Z,11.8
2018-03-20T23:11:51.262Z,9.6
